Time;durP1;ratioP1;P1;durP2;ratioP2;P2;SDS_P1;SDS_P2;PMS_P1;PMS_P2;Temp;Humidity;BMP_temperature;BMP_pressure;BME280_temperature;BME280_humidity;BME280_pressure;Samples;Min_cycle;Max_cycle;Signal;HPM_P1;HPM_P2
2023/06/21 00:00:51;;;;;;;12.70;8.63;;;;;;;26.78;54.94;97289.34;5087962;28;20678;-70
2023/06/21 00:10:01;;;;;;;10.17;7.60;;;;;;;26.54;55.24;97267.34;5088716;28;20435;-69
2023/06/21 00:12:27;;;;;;;14.83;8.60;;;;;;;26.38;55.53;97279.81;5088072;28;20420;-70
2023/06/21 00:14:53;;;;;;;15.03;7.77;;;;;;;26.38;55.77;97269.06;5088496;28;21405;-69
2023/06/21 00:17:19;;;;;;;9.10;8.00;;;;;;;26.34;55.92;97267.94;5088400;28;20185;-70
2023/06/21 00:19:44;;;;;;;9.10;8.17;;;;;;;26.28;55.91;97279.69;5092555;28;20434;-69
2023/06/21 00:22:10;;;;;;;9.27;7.67;;;;;;;26.13;56.39;97280.34;5088476;28;20219;-70
2023/06/21 00:24:35;;;;;;;13.07;8.70;;;;;;;26.10;56.46;97287.03;5069910;28;20177;-71
2023/06/21 00:27:01;;;;;;;9.50;8.60;;;;;;;26.03;56.04;97275.63;5087251;28;20197;-70
2023/06/21 00:29:27;;;;;;;10.10;8.20;;;;;;;26.07;56.32;97290.19;5087550;28;20680;-71
2023/06/21 00:31:52;;;;;;;16.13;8.60;;;;;;;26.17;56.60;97286.81;5091555;28;20243;-69
2023/06/21 00:34:18;;;;;;;12.57;8.50;;;;;;;26.25;56.25;97293.63;5090802;28;20181;-70
2023/06/21 00:36:43;;;;;;;8.60;7.47;;;;;;;26.27;56.05;97299.56;5087365;28;20170;-69
2023/06/21 00:39:10;;;;;;;10.07;8.63;;;;;;;26.27;55.98;97299.56;5087843;28;20185;-69
2023/06/21 00:41:35;;;;;;;11.83;8.30;;;;;;;26.27;55.36;97296.88;5093265;28;20201;-69
2023/06/21 00:44:01;;;;;;;10.30;7.67;;;;;;;26.12;55.81;97301.00;5088096;28;20443;-69
2023/06/21 00:46:26;;;;;;;12.53;7.60;;;;;;;26.05;56.24;97298.47;5095553;28;20283;-69
2023/06/21 00:48:52;;;;;;;11.37;8.90;;;;;;;26.02;56.09;97303.53;5087438;28;20269;-69
2023/06/21 00:51:17;;;;;;;9.33;8.43;;;;;;;25.99;56.49;97309.41;5095491;28;20207;-70
2023/06/21 00:53:43;;;;;;;16.47;8.37;;;;;;;26.00;56.71;97308.34;5098298;28;20173;-69
2023/06/21 00:56:09;;;;;;;10.70;8.50;;;;;;;26.01;56.25;97309.97;5087563;28;20672;-69
2023/06/21 00:58:35;;;;;;;12.90;8.27;;;;;;;25.88;56.79;97311.97;5088980;28;20431;-70
2023/06/21 01:01:00;;;;;;;18.90;8.20;;;;;;;25.84;57.02;97310.03;5092135;28;20249;-69
2023/06/21 01:03:26;;;;;;;9.67;8.67;;;;;;;25.83;56.74;97309.25;5097963;28;20315;-70
2023/06/21 01:06:18;;;;;;;9.00;8.10;;;;;;;25.76;56.61;97308.59;5091300;28;20702;-70
2023/06/21 01:08:55;;;;;;;11.53;8.93;;;;;;;25.79;56.85;97313.47;5088567;28;20423;-68
2023/06/21 01:11:24;;;;;;;11.47;8.93;;;;;;;25.70;56.40;97321.13;5057020;28;20452;-69
2023/06/21 01:13:55;;;;;;;14.70;8.40;;;;;;;25.67;56.99;97318.13;5094140;28;20423;-70
2023/06/21 01:16:21;;;;;;;12.83;9.00;;;;;;;25.69;57.03;97316.03;5090393;28;20418;-70
2023/06/21 01:18:48;;;;;;;13.23;8.73;;;;;;;25.72;56.80;97320.88;5079571;28;20936;-69
2023/06/21 01:21:22;;;;;;;10.67;8.20;;;;;;;25.71;56.50;97324.63;5079878;28;20477;-69
2023/06/21 01:24:09;;;;;;;12.53;8.40;;;;;;;25.70;56.48;97336.44;5094477;28;20444;-70
2023/06/21 01:27:06;;;;;;;10.40;8.40;;;;;;;25.64;57.01;97335.56;5073868;28;20486;-70
2023/06/21 01:29:33;;;;;;;13.17;8.40;;;;;;;25.55;56.43;97332.47;5097183;28;20420;-69
2023/06/21 01:32:01;;;;;;;10.30;8.00;;;;;;;25.46;56.97;97333.91;5095204;28;20439;-69
2023/06/21 01:34:27;;;;;;;12.90;8.43;;;;;;;25.43;57.21;97327.19;5092152;28;20416;-69
2023/06/21 01:36:53;;;;;;;12.27;8.07;;;;;;;25.43;57.06;97334.44;5089737;28;21137;-69
2023/06/21 01:39:18;;;;;;;17.87;8.70;;;;;;;25.44;56.93;97331.50;5087963;28;20412;-69
2023/06/21 01:41:46;;;;;;;10.60;7.70;;;;;;;25.47;56.71;97340.13;5087838;28;20190;-69
2023/06/21 01:44:13;;;;;;;10.47;9.10;;;;;;;25.42;57.07;97340.84;5085677;28;20177;-69
2023/06/21 01:46:38;;;;;;;15.53;9.10;;;;;;;25.48;56.84;97347.91;5078305;28;20455;-70
2023/06/21 01:49:06;;;;;;;10.30;9.00;;;;;;;25.55;56.66;97353.94;5075176;28;20422;-69
2023/06/21 01:51:34;;;;;;;13.87;8.50;;;;;;;25.60;56.36;97362.03;5088872;28;20209;-70
2023/06/21 01:54:00;;;;;;;9.67;8.17;;;;;;;25.58;56.04;97364.16;5093947;28;21233;-70
2023/06/21 01:56:26;;;;;;;8.23;7.37;;;;;;;25.58;56.20;97364.16;5098547;28;20411;-69
2023/06/21 01:58:51;;;;;;;11.20;8.67;;;;;;;25.54;56.03;97362.19;5070868;28;20193;-70
2023/06/21 02:01:18;;;;;;;17.87;8.90;;;;;;;25.40;56.62;97364.38;5073496;28;20698;-70
2023/06/21 02:03:53;;;;;;;10.07;8.53;;;;;;;25.39;56.90;97368.91;5078211;28;20528;-69
2023/06/21 02:06:26;;;;;;;12.93;9.27;;;;;;;25.39;56.91;97373.50;5092837;28;20534;-70
2023/06/21 02:08:52;;;;;;;11.40;8.60;;;;;;;25.28;56.72;97385.91;5075488;28;20478;-70
2023/06/21 02:11:18;;;;;;;11.70;8.90;;;;;;;25.20;57.25;97386.31;5091637;28;20497;-70
2023/06/21 02:13:45;;;;;;;9.53;8.60;;;;;;;25.19;57.33;97388.22;5072162;28;20785;-70
2023/06/21 02:16:11;;;;;;;11.73;9.07;;;;;;;25.13;57.52;97387.31;5071796;28;20243;-70
2023/06/21 02:18:36;;;;;;;11.80;8.93;;;;;;;25.19;57.39;97396.25;5096445;28;20407;-71
2023/06/21 02:21:02;;;;;;;16.60;9.10;;;;;;;25.25;57.43;97392.59;5089841;28;20266;-70
2023/06/21 02:23:28;;;;;;;9.93;8.57;;;;;;;25.22;56.98;97386.91;5098018;28;20178;-69
2023/06/21 02:25:53;;;;;;;12.90;8.80;;;;;;;25.12;57.31;97393.72;5091830;28;20574;-69
2023/06/21 02:28:20;;;;;;;14.60;8.80;;;;;;;25.14;57.53;97380.84;5088805;28;20178;-70
2023/06/21 02:30:46;;;;;;;11.60;8.60;;;;;;;25.08;57.63;97383.69;5092326;28;20210;-69
2023/06/21 02:33:11;;;;;;;9.50;8.10;;;;;;;25.04;57.44;97391.41;5082638;28;20442;-69
2023/06/21 02:35:37;;;;;;;12.50;8.40;;;;;;;25.00;57.91;97396.44;5099985;28;20196;-69
2023/06/21 02:38:02;;;;;;;14.13;9.10;;;;;;;25.02;57.63;97390.03;5101449;28;20264;-71
2023/06/21 02:40:28;;;;;;;9.70;8.60;;;;;;;24.99;57.38;97383.31;5093459;28;20201;-69
2023/06/21 02:42:53;;;;;;;14.10;8.37;;;;;;;24.98;57.68;97381.66;5085532;28;20184;-70
2023/06/21 02:45:19;;;;;;;12.67;9.03;;;;;;;24.94;57.38;97386.72;5089328;28;20174;-71
2023/06/21 02:47:44;;;;;;;11.73;8.77;;;;;;;24.97;57.44;97388.09;5091430;28;20222;-70
2023/06/21 02:50:10;;;;;;;10.40;8.73;;;;;;;24.97;57.59;97388.88;5092141;28;20201;-70
2023/06/21 02:52:35;;;;;;;15.70;9.10;;;;;;;24.96;57.59;97389.94;5087773;28;20177;-70
2023/06/21 02:55:03;;;;;;;11.30;9.30;;;;;;;24.90;57.57;97388.22;5101506;28;20182;-70
2023/06/21 02:57:28;;;;;;;12.03;9.47;;;;;;;24.92;57.93;97398.69;5089207;28;20182;-70
2023/06/21 02:59:57;;;;;;;12.23;8.40;;;;;;;25.02;57.26;97403.44;5092700;28;20974;-70
2023/06/21 03:02:22;;;;;;;14.20;8.23;;;;;;;25.06;57.32;97405.41;5099329;28;20173;-70
2023/06/21 03:04:48;;;;;;;13.00;8.50;;;;;;;25.10;57.19;97405.72;5094101;28;20545;-70
2023/06/21 03:07:13;;;;;;;10.13;8.20;;;;;;;25.14;56.63;97410.34;5092353;28;20229;-69
2023/06/21 03:09:38;;;;;;;15.33;8.93;;;;;;;25.11;56.43;97423.44;5097271;28;20269;-70
2023/06/21 03:12:08;;;;;;;10.17;8.80;;;;;;;25.00;57.09;97415.22;5090710;28;20700;-70
2023/06/21 03:14:41;;;;;;;13.13;8.87;;;;;;;24.88;56.97;97435.91;5094126;28;20193;-69
2023/06/21 03:17:09;;;;;;;9.57;8.57;;;;;;;24.74;58.33;97446.09;5088822;28;20607;-69
2023/06/21 03:19:34;;;;;;;13.93;9.13;;;;;;;24.79;57.99;97448.06;5084610;28;20429;-69
2023/06/21 03:22:00;;;;;;;10.10;8.70;;;;;;;24.87;58.36;97450.34;5087651;28;20517;-70
2023/06/21 03:24:26;;;;;;;10.67;8.37;;;;;;;24.94;58.20;97448.34;5090758;28;20192;-70
2023/06/21 03:26:53;;;;;;;13.50;8.97;;;;;;;25.00;57.98;97449.25;5095735;28;20186;-70
2023/06/21 03:29:18;;;;;;;13.80;10.00;;;;;;;24.90;57.92;97449.88;5089621;28;20415;-69
2023/06/21 03:31:43;;;;;;;9.60;8.70;;;;;;;24.89;57.87;97452.81;5087126;28;20456;-69
2023/06/21 03:34:09;;;;;;;13.77;9.53;;;;;;;24.86;57.48;97458.63;5088126;28;20222;-69
2023/06/21 03:36:34;;;;;;;12.90;10.03;;;;;;;24.78;58.16;97467.88;5086659;28;20636;-69
2023/06/21 03:39:00;;;;;;;10.57;8.80;;;;;;;24.71;58.19;97488.59;5091158;28;20590;-70
2023/06/21 03:41:25;;;;;;;15.70;9.60;;;;;;;24.77;58.14;97506.44;5090294;28;20197;-70
2023/06/21 03:43:51;;;;;;;17.13;8.97;;;;;;;24.88;58.70;97544.97;5092546;28;21571;-70
2023/06/21 03:46:18;;;;;;;16.20;8.80;;;;;;;24.94;58.05;97562.78;5092570;28;20683;-70
2023/06/21 03:48:43;;;;;;;9.43;8.50;;;;;;;24.92;57.61;97570.25;5089238;28;20250;-69
2023/06/21 03:51:09;;;;;;;9.47;8.53;;;;;;;24.95;57.20;97608.09;5093286;28;20973;-70
2023/06/21 03:53:34;;;;;;;17.40;9.33;;;;;;;24.93;56.60;97585.28;5071598;28;20201;-69
2023/06/21 03:55:59;;;;;;;15.30;8.90;;;;;;;24.96;57.46;97571.41;5093284;28;20184;-70
2023/06/21 03:58:25;;;;;;;12.60;9.17;;;;;;;24.89;57.90;97533.22;5087656;28;20209;-69
2023/06/21 04:00:50;;;;;;;13.03;9.53;;;;;;;24.83;58.91;97541.13;5088924;28;20236;-69
2023/06/21 04:03:16;;;;;;;11.53;8.60;;;;;;;24.73;58.99;97540.09;5087668;28;20547;-70
2023/06/21 04:05:41;;;;;;;13.23;9.90;;;;;;;24.75;59.49;97554.06;5088599;28;20232;-69
2023/06/21 04:08:07;;;;;;;12.10;9.20;;;;;;;24.78;58.78;97556.28;5103184;28;20210;-69
2023/06/21 04:10:32;;;;;;;13.50;8.87;;;;;;;24.73;58.41;97543.59;5090786;28;20282;-69
2023/06/21 04:12:58;;;;;;;10.40;9.37;;;;;;;24.74;58.75;97547.91;5087008;28;20185;-70
2023/06/21 04:15:23;;;;;;;10.27;9.10;;;;;;;24.72;59.07;97543.81;5093800;28;20197;-69
2023/06/21 04:17:51;;;;;;;10.63;9.47;;;;;;;24.69;58.98;97529.88;5086697;28;20256;-69
2023/06/21 04:20:17;;;;;;;9.37;8.57;;;;;;;24.75;59.90;97521.94;5090889;28;20209;-69
2023/06/21 04:22:42;;;;;;;17.50;9.70;;;;;;;24.80;60.27;97514.00;5086651;28;20459;-70
2023/06/21 04:25:09;;;;;;;12.10;9.47;;;;;;;24.81;60.07;97508.41;5086960;28;20246;-69
2023/06/21 04:27:34;;;;;;;12.73;9.30;;;;;;;24.78;60.30;97516.09;5086681;28;20198;-69
2023/06/21 04:29:59;;;;;;;14.87;10.27;;;;;;;24.77;60.09;97522.50;5086989;28;20481;-69
2023/06/21 04:32:31;;;;;;;18.53;10.00;;;;;;;24.76;60.60;97512.84;5089817;28;20189;-70
2023/06/21 04:35:00;;;;;;;11.93;9.53;;;;;;;24.78;60.60;97521.47;5099003;28;20177;-71
2023/06/21 04:37:28;;;;;;;13.10;9.40;;;;;;;24.78;61.42;97522.25;5099044;28;20429;-70
2023/06/21 04:39:54;;;;;;;13.80;10.10;;;;;;;24.81;60.97;97523.69;5102783;28;20434;-71
2023/06/21 04:42:20;;;;;;;15.33;9.97;;;;;;;24.73;61.48;97519.50;5073833;28;20939;-71
2023/06/21 04:44:48;;;;;;;13.60;10.30;;;;;;;24.76;61.75;97534.28;5110759;28;20185;-71
2023/06/21 04:47:15;;;;;;;11.67;9.53;;;;;;;24.82;61.77;97530.66;5094869;28;20451;-70
2023/06/21 04:49:41;;;;;;;13.30;10.23;;;;;;;24.81;62.14;97540.56;5092534;28;20924;-71
2023/06/21 04:52:06;;;;;;;12.57;10.37;;;;;;;24.82;61.96;97546.75;5105825;28;20435;-73
2023/06/21 04:54:32;;;;;;;13.60;10.13;;;;;;;24.87;62.55;97548.72;5096303;28;20216;-70
2023/06/21 04:56:58;;;;;;;12.83;10.40;;;;;;;24.88;61.99;97550.34;5089939;28;20205;-71
2023/06/21 04:59:23;;;;;;;10.43;9.30;;;;;;;24.90;62.40;97545.53;5091066;28;20182;-70
2023/06/21 05:01:49;;;;;;;12.03;9.20;;;;;;;24.96;62.08;97558.81;5090599;28;20209;-70
2023/06/21 05:04:14;;;;;;;13.33;9.90;;;;;;;25.04;61.51;97548.78;5091375;28;20177;-70
2023/06/21 05:06:40;;;;;;;13.73;8.60;;;;;;;25.07;61.13;97551.00;5090071;28;20755;-70
2023/06/21 05:09:06;;;;;;;13.30;9.00;;;;;;;25.16;61.44;97552.25;5103346;28;20178;-70
2023/06/21 05:11:31;;;;;;;10.43;9.40;;;;;;;25.25;61.41;97564.22;5072714;28;20204;-71
2023/06/21 05:13:57;;;;;;;11.53;10.00;;;;;;;25.26;61.21;97565.03;5090123;28;20176;-70
2023/06/21 05:16:22;;;;;;;11.77;9.43;;;;;;;25.26;61.45;97570.41;5098283;28;20653;-71
2023/06/21 05:18:48;;;;;;;11.37;9.20;;;;;;;25.27;61.86;97558.59;5071952;28;20212;-70
2023/06/21 05:21:13;;;;;;;13.40;9.13;;;;;;;25.30;61.60;97550.91;5087741;28;20237;-70
2023/06/21 05:23:39;;;;;;;16.97;10.23;;;;;;;25.37;61.78;97555.31;5080444;28;20178;-71
2023/06/21 05:26:04;;;;;;;11.50;9.37;;;;;;;25.44;62.28;97556.03;5093124;28;20244;-71
2023/06/21 05:28:30;;;;;;;11.47;9.80;;;;;;;25.47;62.00;97560.09;5079661;28;20728;-72
2023/06/21 05:30:55;;;;;;;15.30;9.00;;;;;;;25.49;61.95;97569.50;5092162;28;20729;-71
2023/06/21 05:33:20;;;;;;;11.23;8.83;;;;;;;25.55;61.65;97562.38;5092398;28;20174;-71
2023/06/21 05:35:46;;;;;;;11.50;10.10;;;;;;;25.56;60.97;97558.63;5093614;28;20231;-71
2023/06/21 05:38:11;;;;;;;15.13;10.30;;;;;;;25.64;61.22;97560.94;5097621;28;20182;-72
2023/06/21 05:40:37;;;;;;;10.60;8.70;;;;;;;25.74;60.53;97557.59;5095519;28;20202;-69
2023/06/21 05:43:03;;;;;;;10.30;9.40;;;;;;;25.82;60.57;97556.41;5090711;28;20189;-71
2023/06/21 05:45:28;;;;;;;11.47;9.87;;;;;;;25.87;60.23;97559.19;5091428;28;20174;-71
2023/06/21 05:47:55;;;;;;;18.43;11.67;;;;;;;25.79;61.00;97557.69;5103712;28;20520;-72
2023/06/21 05:50:21;;;;;;;10.57;9.57;;;;;;;25.84;61.33;97549.72;5094086;28;20194;-72
2023/06/21 05:52:46;;;;;;;15.33;10.20;;;;;;;25.86;61.08;97550.28;5091996;28;20430;-72
2023/06/21 05:55:11;;;;;;;14.43;10.47;;;;;;;25.88;61.14;97548.19;5090799;28;20204;-71
2023/06/21 05:57:37;;;;;;;12.70;9.40;;;;;;;25.94;61.56;97554.44;5091309;28;20232;-72
2023/06/21 06:00:05;;;;;;;11.67;10.13;;;;;;;25.96;61.08;97551.53;5088747;28;20243;-73
2023/06/21 06:02:31;;;;;;;9.77;8.77;;;;;;;25.95;60.11;97550.72;5090119;28;20568;-71
2023/06/21 06:04:56;;;;;;;11.50;9.17;;;;;;;25.87;58.11;97559.97;5098949;28;20455;-72
2023/06/21 06:07:23;;;;;;;13.13;9.47;;;;;;;25.86;58.08;97555.66;5094754;28;20214;-71
2023/06/21 06:09:48;;;;;;;13.60;9.33;;;;;;;25.89;58.25;97552.50;5088821;28;20202;-71
2023/06/21 06:12:14;;;;;;;18.90;9.77;;;;;;;25.92;59.20;97541.28;5059441;28;20911;-72
2023/06/21 06:14:39;;;;;;;18.83;9.73;;;;;;;25.94;58.19;97540.22;5055734;28;20264;-71
2023/06/21 06:17:05;;;;;;;13.20;9.80;;;;;;;25.96;58.57;97533.56;5061814;28;20594;-72
2023/06/21 06:19:30;;;;;;;12.10;10.10;;;;;;;25.98;57.80;97547.53;5055170;28;20180;-72
2023/06/21 06:21:55;;;;;;;15.23;9.97;;;;;;;26.01;56.99;97554.28;5097910;28;20260;-71
2023/06/21 06:24:21;;;;;;;14.47;10.10;;;;;;;26.08;57.41;97565.69;5090284;28;20173;-71
2023/06/21 06:26:46;;;;;;;18.13;10.47;;;;;;;26.14;56.96;97575.47;5088600;28;20204;-73
2023/06/21 06:29:12;;;;;;;17.03;10.73;;;;;;;26.22;56.06;97558.94;5090131;28;20235;-72
2023/06/21 06:31:37;;;;;;;18.53;9.53;;;;;;;26.32;55.97;97554.81;5090075;28;20252;-73
2023/06/21 06:34:03;;;;;;;28.27;11.77;;;;;;;26.40;55.17;97551.69;5093202;28;20184;-72
2023/06/21 06:36:28;;;;;;;81.50;13.93;;;;;;;26.53;54.96;97550.53;5091129;28;20735;-72
2023/06/21 06:38:54;;;;;;;30.37;10.80;;;;;;;26.66;54.73;97552.06;5089646;28;20203;-71
2023/06/21 06:41:19;;;;;;;17.07;9.43;;;;;;;26.76;54.80;97560.25;5089232;28;20277;-71
2023/06/21 06:43:45;;;;;;;18.97;9.33;;;;;;;26.90;54.61;97554.53;5072076;28;20189;-75
2023/06/21 06:46:10;;;;;;;12.60;8.93;;;;;;;27.06;54.03;97561.75;5093233;28;20665;-71
2023/06/21 06:48:36;;;;;;;14.77;9.20;;;;;;;27.18;53.07;97560.78;5093868;28;20170;-73
2023/06/21 06:51:02;;;;;;;12.70;8.27;;;;;;;27.20;51.90;97570.22;5089048;28;20314;-70
2023/06/21 06:53:27;;;;;;;11.83;8.00;;;;;;;27.03;50.70;97573.00;5090161;28;20220;-71
2023/06/21 06:55:54;;;;;;;14.53;7.80;;;;;;;27.17;51.26;97559.97;5076306;28;20191;-70
2023/06/21 06:58:21;;;;;;;12.40;7.83;;;;;;;27.29;51.43;97554.47;5088497;28;20197;-74
2023/06/21 07:00:47;;;;;;;14.50;7.43;;;;;;;27.44;51.31;97565.41;5090572;28;20439;-74
2023/06/21 07:03:12;;;;;;;9.07;7.50;;;;;;;27.59;51.14;97566.66;5119580;28;20415;-71
2023/06/21 07:05:46;;;;;;;10.10;7.67;;;;;;;27.72;50.78;97568.09;5093171;28;20424;-71
2023/06/21 07:08:11;;;;;;;14.30;7.50;;;;;;;27.80;49.90;97564.13;5109591;28;20248;-70
2023/06/21 07:10:37;;;;;;;16.67;8.30;;;;;;;27.77;48.71;97567.34;5112955;28;20440;-71
2023/06/21 07:13:03;;;;;;;9.83;7.47;;;;;;;27.93;48.80;97576.34;5090197;28;20174;-70
2023/06/21 07:15:28;;;;;;;9.40;7.30;;;;;;;28.00;47.94;97567.00;5110139;28;20404;-72
2023/06/21 07:17:55;;;;;;;14.17;7.87;;;;;;;28.08;48.21;97554.13;5114147;28;20182;-72
2023/06/21 07:20:20;;;;;;;13.20;7.10;;;;;;;28.33;48.34;97548.97;5113084;28;20273;-73
2023/06/21 07:22:46;;;;;;;9.00;6.67;;;;;;;28.55;48.26;97548.00;5106211;28;20412;-72
2023/06/21 07:25:11;;;;;;;9.93;7.47;;;;;;;28.75;48.84;97549.22;5110286;28;20182;-72
2023/06/21 07:27:37;;;;;;;10.67;6.90;;;;;;;28.94;48.18;97558.47;5101702;28;20328;-72
2023/06/21 07:30:04;;;;;;;11.43;6.67;;;;;;;29.06;48.00;97560.16;5111201;28;20206;-71
2023/06/21 07:32:30;;;;;;;10.13;7.30;;;;;;;29.12;47.86;97553.69;5115281;28;20550;-72
2023/06/21 07:35:00;;;;;;;16.40;7.20;;;;;;;29.19;48.02;97558.81;5105918;28;20408;-72
2023/06/21 07:37:29;;;;;;;8.57;6.17;;;;;;;29.15;47.70;97555.06;5109078;28;20408;-72
2023/06/21 07:39:55;;;;;;;16.93;6.03;;;;;;;29.03;46.93;97550.69;5110327;28;20502;-71
2023/06/21 07:42:22;;;;;;;8.93;5.27;;;;;;;28.83;47.54;97559.50;5118626;28;20426;-73
2023/06/21 07:44:50;;;;;;;10.27;5.30;;;;;;;28.78;46.61;97568.41;5113499;28;20437;-71
2023/06/21 07:47:16;;;;;;;15.80;5.73;;;;;;;28.73;47.10;97564.88;5108953;28;20448;-72
2023/06/21 07:49:42;;;;;;;6.67;5.73;;;;;;;28.65;47.51;97569.63;5117146;28;20411;-71
2023/06/21 07:52:07;;;;;;;10.50;6.30;;;;;;;28.63;47.56;97579.84;5095499;28;20245;-70
2023/06/21 07:54:33;;;;;;;10.13;5.60;;;;;;;28.57;47.71;97572.81;5116787;28;20207;-73
2023/06/21 07:56:58;;;;;;;8.40;5.40;;;;;;;28.48;47.79;97577.09;5109365;28;20174;-73
2023/06/21 07:59:23;;;;;;;6.30;5.23;;;;;;;28.51;47.51;97581.94;5110550;28;20161;-71
2023/06/21 08:01:49;;;;;;;7.67;5.17;;;;;;;28.50;48.04;97580.31;5114055;28;20523;-70
2023/06/21 08:04:14;;;;;;;6.03;5.43;;;;;;;28.51;47.04;97584.63;5110405;28;20181;-72
2023/06/21 08:06:40;;;;;;;6.03;5.33;;;;;;;28.46;47.68;97585.41;5110603;28;20193;-70
2023/06/21 08:09:05;;;;;;;8.67;5.10;;;;;;;28.47;47.40;97581.66;5110345;28;20177;-72
2023/06/21 08:11:31;;;;;;;9.50;5.77;;;;;;;28.47;47.56;97587.03;5108876;28;20197;-72
2023/06/21 08:13:56;;;;;;;6.37;5.40;;;;;;;28.43;47.96;97595.91;5109930;28;20216;-72
2023/06/21 08:16:21;;;;;;;7.40;5.80;;;;;;;28.38;48.30;97598.56;5105949;28;20180;-73
2023/06/21 08:18:47;;;;;;;8.33;5.27;;;;;;;28.31;47.86;97588.81;5099248;28;20174;-71
2023/06/21 08:21:12;;;;;;;9.60;5.50;;;;;;;28.22;47.86;97600.31;5111834;28;20207;-73
2023/06/21 08:23:38;;;;;;;9.20;5.37;;;;;;;28.18;48.72;97610.81;5124392;28;20188;-72
2023/06/21 08:26:03;;;;;;;8.07;5.47;;;;;;;28.12;49.37;97611.81;5120773;28;20205;-72
2023/06/21 08:28:29;;;;;;;8.03;5.50;;;;;;;28.05;49.03;97614.69;5106143;28;20178;-72
2023/06/21 08:30:54;;;;;;;7.17;5.47;;;;;;;27.99;48.99;97632.69;5114264;28;20235;-71
2023/06/21 08:33:20;;;;;;;8.03;5.67;;;;;;;27.95;48.89;97634.28;5106287;28;20277;-71
2023/06/21 08:35:45;;;;;;;6.60;5.47;;;;;;;27.88;49.16;97628.28;5115594;28;20235;-72
2023/06/21 08:38:11;;;;;;;6.03;4.70;;;;;;;27.78;49.13;97630.88;5107257;28;20184;-73
2023/06/21 08:40:37;;;;;;;7.17;5.37;;;;;;;27.74;48.97;97633.28;5107343;28;20607;-71
2023/06/21 08:43:03;;;;;;;11.83;5.40;;;;;;;27.70;48.82;97634.84;5099817;28;20621;-72
2023/06/21 08:45:29;;;;;;;6.70;5.23;;;;;;;27.67;48.65;97638.84;5100520;28;20531;-73
2023/06/21 08:48:00;;;;;;;15.53;5.10;;;;;;;27.64;48.49;97647.44;5088376;28;20206;-71
2023/06/21 08:50:26;;;;;;;9.43;4.37;;;;;;;27.64;48.75;97665.47;5088564;28;20204;-74
2023/06/21 08:52:52;;;;;;;7.07;4.97;;;;;;;27.64;49.13;97682.44;5087380;28;20428;-72
2023/06/21 08:55:20;;;;;;;7.40;4.70;;;;;;;27.60;49.97;97675.91;5087582;28;20670;-72
2023/06/21 08:57:51;;;;;;;9.40;5.20;;;;;;;27.51;51.07;97678.25;5096368;28;20423;-71
2023/06/21 09:00:22;;;;;;;9.60;5.20;;;;;;;27.43;51.38;97676.78;5069420;28;20974;-72
2023/06/21 09:02:52;;;;;;;9.13;6.00;;;;;;;27.35;51.89;97669.13;5100611;28;20415;-73
2023/06/21 09:06:06;;;;;;;10.23;5.20;;;;;;;27.28;52.20;97658.53;5098985;28;20507;-72
2023/06/21 09:08:32;;;;;;;8.20;5.20;;;;;;;27.22;51.82;97648.81;5058152;28;20444;-72
2023/06/21 09:10:59;;;;;;;6.73;6.03;;;;;;;27.11;52.82;97637.09;5094904;28;20479;-72
2023/06/21 09:13:27;;;;;;;9.47;5.23;;;;;;;27.03;52.56;97618.72;5073844;28;20484;-71
2023/06/21 09:15:56;;;;;;;10.63;6.30;;;;;;;26.92;53.96;97609.69;5088683;28;20840;-72
2023/06/21 09:18:22;;;;;;;14.50;5.53;;;;;;;26.89;55.30;97595.94;5053378;28;20435;-71
2023/06/21 09:20:49;;;;;;;11.53;5.90;;;;;;;26.79;55.69;97580.47;5093798;28;20454;-71
2023/06/21 09:23:14;;;;;;;10.43;6.50;;;;;;;26.67;56.97;97599.38;5093968;28;20546;-72
2023/06/21 09:25:40;;;;;;;9.53;5.73;;;;;;;26.56;57.73;97625.28;5081510;28;20427;-71
2023/06/21 09:28:05;;;;;;;13.70;6.90;;;;;;;26.47;57.92;97638.31;5094278;28;20299;-71
2023/06/21 09:30:31;;;;;;;10.93;6.43;;;;;;;26.43;58.95;97649.78;5096124;28;20255;-71
2023/06/21 09:32:57;;;;;;;10.30;6.67;;;;;;;26.36;59.38;97656.16;5084368;28;20201;-71
2023/06/21 09:35:24;;;;;;;9.60;7.00;;;;;;;26.25;59.67;97630.19;5100129;28;20217;-72
2023/06/21 09:37:50;;;;;;;22.97;7.27;;;;;;;26.30;60.30;97594.53;5109736;28;20422;-72
2023/06/21 09:40:15;;;;;;;15.10;7.40;;;;;;;26.37;60.26;97579.03;5084438;28;20194;-72
2023/06/21 09:42:42;;;;;;;10.67;6.57;;;;;;;26.27;60.93;97574.34;5102222;28;20177;-72
2023/06/21 09:45:18;;;;;;;10.77;6.13;;;;;;;26.18;61.10;97582.00;5097488;28;20193;-71
2023/06/21 09:47:43;;;;;;;10.33;7.23;;;;;;;26.14;62.08;97621.13;5108534;28;20541;-71
2023/06/21 09:50:09;;;;;;;14.77;7.60;;;;;;;26.03;61.64;97627.34;5102468;28;20493;-72
2023/06/21 09:52:35;;;;;;;13.70;7.33;;;;;;;26.02;62.24;97623.03;5107636;28;20234;-72
2023/06/21 09:55:02;;;;;;;17.73;7.60;;;;;;;25.97;62.62;97598.78;5091410;28;20467;-72
2023/06/21 09:57:28;;;;;;;12.47;7.90;;;;;;;25.89;62.15;97616.94;5092171;28;20177;-72
2023/06/21 09:59:54;;;;;;;11.03;8.27;;;;;;;25.86;62.04;97640.75;5096630;28;20485;-71
2023/06/21 10:02:19;;;;;;;13.93;7.97;;;;;;;25.84;62.47;97651.72;5062472;28;20553;-71
2023/06/21 10:04:45;;;;;;;17.43;7.50;;;;;;;25.85;63.18;97674.03;5074759;28;20642;-71
2023/06/21 10:07:14;;;;;;;11.80;7.93;;;;;;;25.83;63.84;97682.31;5091597;28;20682;-73
2023/06/21 10:09:39;;;;;;;12.17;9.10;;;;;;;25.79;64.11;97681.16;5092743;28;20427;-72
2023/06/21 10:12:05;;;;;;;15.23;9.57;;;;;;;25.76;64.39;97682.47;5092522;28;20428;-71
2023/06/21 10:14:31;;;;;;;17.67;9.10;;;;;;;25.74;63.78;97698.00;5093063;28;20177;-72
2023/06/21 10:16:57;;;;;;;15.50;9.30;;;;;;;25.74;63.90;97699.84;5100355;28;20203;-71
2023/06/21 10:19:24;;;;;;;14.93;9.20;;;;;;;25.71;63.54;97700.31;5102910;28;20177;-72
2023/06/21 10:22:04;;;;;;;13.73;10.00;;;;;;;25.59;62.89;97701.16;5102115;28;20551;-73
2023/06/21 10:24:36;;;;;;;12.30;8.97;;;;;;;25.64;63.22;97705.00;5090491;28;20810;-71
2023/06/21 10:27:04;;;;;;;14.73;9.57;;;;;;;25.64;63.89;97705.84;5092553;28;20479;-72
2023/06/21 10:29:31;;;;;;;14.60;9.80;;;;;;;25.66;63.81;97702.91;5077855;28;20454;-72
2023/06/21 10:31:59;;;;;;;13.27;9.97;;;;;;;25.61;63.40;97709.78;5090323;28;21202;-70
2023/06/21 10:34:27;;;;;;;15.30;9.70;;;;;;;25.60;62.56;97708.16;5099322;28;20412;-71
2023/06/21 10:37:00;;;;;;;17.63;10.23;;;;;;;25.59;63.14;97705.72;5089803;28;20448;-72
2023/06/21 10:39:27;;;;;;;13.80;10.10;;;;;;;25.63;62.92;97709.59;5072526;28;20435;-70
2023/06/21 10:41:52;;;;;;;16.37;9.60;;;;;;;25.65;62.99;97706.66;5090807;28;20435;-73
2023/06/21 10:44:18;;;;;;;15.90;10.50;;;;;;;25.67;63.39;97707.22;5080596;28;20419;-71
2023/06/21 10:46:45;;;;;;;14.07;9.13;;;;;;;25.76;62.88;97711.16;5089648;28;20205;-72
2023/06/21 10:49:11;;;;;;;9.77;7.90;;;;;;;25.86;62.29;97713.25;5071676;28;20212;-73
2023/06/21 10:51:37;;;;;;;14.97;8.53;;;;;;;25.95;62.22;97716.38;5089931;28;20523;-72
2023/06/21 10:54:03;;;;;;;10.73;8.07;;;;;;;25.96;59.98;97718.78;5083192;28;20182;-72
2023/06/21 10:56:29;;;;;;;9.60;8.60;;;;;;;26.00;60.13;97703.00;5094324;28;20411;-71
2023/06/21 10:58:55;;;;;;;9.90;7.70;;;;;;;26.13;60.96;97710.00;5094401;28;20420;-72
2023/06/21 11:01:21;;;;;;;12.50;8.20;;;;;;;26.25;61.18;97710.75;5075702;28;20458;-71
2023/06/21 11:03:47;;;;;;;13.27;9.13;;;;;;;26.32;60.00;97718.66;5076611;28;20205;-71
2023/06/21 11:06:28;;;;;;;8.00;6.90;;;;;;;26.28;60.39;97721.00;5105378;28;20958;-72
2023/06/21 11:08:54;;;;;;;8.70;7.50;;;;;;;26.37;59.83;97721.44;5097359;28;20796;-71
2023/06/21 11:11:29;;;;;;;13.90;8.43;;;;;;;26.40;59.24;97715.56;5072863;28;20427;-71
2023/06/21 11:13:55;;;;;;;8.63;7.77;;;;;;;26.56;59.45;97722.03;5089720;28;20423;-70
2023/06/21 11:16:24;;;;;;;10.10;7.00;;;;;;;26.59;57.56;97728.78;5073832;28;20471;-72
2023/06/21 11:18:55;;;;;;;9.13;7.10;;;;;;;26.67;57.42;97728.38;5093485;28;20272;-71
2023/06/21 11:21:49;;;;;;;9.33;7.40;;;;;;;26.87;56.42;97740.53;5089071;28;20431;-73
2023/06/21 11:24:16;;;;;;;11.20;7.33;;;;;;;27.08;56.22;97737.13;5088781;28;21111;-70
2023/06/21 11:26:58;;;;;;;7.70;7.00;;;;;;;27.24;56.36;97726.56;5083123;28;20454;-70
2023/06/21 11:29:25;;;;;;;11.13;7.20;;;;;;;27.43;55.76;97727.91;5091684;28;20423;-72
2023/06/21 11:32:06;;;;;;;9.53;7.63;;;;;;;27.54;55.62;97725.38;5071817;28;20458;-71